createdAt,value
2022-12-09T00:00:08.170Z,2.77
2022-12-09T00:02:35.559Z,2.75
2022-12-09T00:05:02.691Z,2.75
2022-12-09T00:07:29.576Z,2.72
2022-12-09T00:09:56.569Z,2.69
2022-12-09T00:12:23.394Z,2.68
2022-12-09T00:14:50.430Z,2.69
2022-12-09T00:17:17.468Z,2.65
2022-12-09T00:19:44.348Z,2.65
2022-12-09T00:22:11.096Z,2.64
2022-12-09T00:24:38.221Z,2.63
2022-12-09T00:27:05.019Z,2.61
2022-12-09T00:29:31.808Z,2.61
2022-12-09T00:31:58.564Z,2.57
2022-12-09T00:34:25.428Z,2.57
2022-12-09T00:36:52.448Z,2.55
2022-12-09T00:39:19.351Z,2.54
2022-12-09T00:41:46.154Z,2.51
2022-12-09T00:44:13.261Z,2.49
2022-12-09T00:46:40.048Z,2.48
2022-12-09T00:49:07.002Z,2.46
2022-12-09T00:51:34.017Z,2.45
2022-12-09T00:54:00.929Z,2.42
2022-12-09T00:56:30.014Z,2.41
2022-12-09T00:58:58.630Z,2.40
2022-12-09T01:01:26.562Z,2.38
2022-12-09T01:03:53.663Z,2.37
2022-12-09T01:06:23.973Z,2.35
2022-12-09T01:08:51.630Z,2.35
2022-12-09T01:11:29.418Z,2.35
2022-12-09T01:14:01.484Z,2.33
2022-12-09T01:16:32.374Z,2.33
2022-12-09T01:19:05.869Z,2.32
2022-12-09T01:21:34.235Z,2.31
2022-12-09T01:24:02.016Z,2.32
2022-12-09T01:26:28.789Z,2.31
2022-12-09T01:28:57.050Z,2.31
2022-12-09T01:31:24.903Z,2.29
2022-12-09T01:33:52.544Z,2.29
2022-12-09T01:36:23.871Z,2.30
2022-12-09T01:38:51.130Z,2.28
2022-12-09T01:41:20.597Z,2.27
2022-12-09T01:44:20.737Z,2.25
2022-12-09T01:46:47.993Z,2.24
2022-12-09T01:49:29.792Z,2.23
2022-12-09T01:52:09.821Z,2.23
2022-12-09T01:54:38.408Z,2.21
2022-12-09T01:57:05.949Z,2.19
2022-12-09T01:59:32.837Z,2.16
2022-12-09T02:02:02.468Z,2.17
2022-12-09T02:04:32.915Z,2.15
2022-12-09T02:07:01.590Z,2.12
2022-12-09T02:09:28.969Z,2.09
2022-12-09T02:12:17.449Z,2.08
2022-12-09T02:15:05.987Z,2.04
2022-12-09T02:17:49.375Z,2.03
2022-12-09T02:20:38.846Z,2.00
2022-12-09T02:23:24.341Z,1.97
2022-12-09T02:26:27.757Z,1.94
2022-12-09T02:29:30.068Z,1.90
2022-12-09T02:32:23.091Z,1.89
2022-12-09T02:35:06.235Z,1.86
2022-12-09T02:37:57.715Z,1.83
2022-12-09T02:40:36.252Z,1.82
2022-12-09T02:43:06.597Z,1.80
2022-12-09T02:45:35.911Z,1.78
2022-12-09T02:48:04.531Z,1.77
2022-12-09T02:50:36.727Z,1.78
2022-12-09T02:53:09.407Z,1.75
2022-12-09T02:55:37.502Z,1.74
2022-12-09T02:58:04.552Z,1.72
2022-12-09T03:00:31.637Z,1.69
2022-12-09T03:03:03.121Z,1.70
2022-12-09T03:05:34.301Z,1.68
2022-12-09T03:08:15.751Z,1.65
2022-12-09T03:11:08.917Z,1.64
2022-12-09T03:13:46.868Z,1.62
2022-12-09T03:16:34.119Z,1.60
2022-12-09T03:19:20.689Z,1.58
2022-12-09T03:21:51.734Z,1.56
2022-12-09T03:24:24.877Z,1.55
2022-12-09T03:26:53.847Z,1.53
2022-12-09T03:29:26.871Z,1.54
2022-12-09T03:31:57.092Z,1.52
2022-12-09T03:34:30.368Z,1.52
2022-12-09T03:36:58.792Z,1.51
2022-12-09T03:39:31.473Z,1.49
2022-12-09T03:42:03.689Z,1.49
2022-12-09T03:44:52.354Z,1.48
2022-12-09T03:47:19.630Z,1.47
2022-12-09T03:49:46.620Z,1.46
2022-12-09T03:52:27.642Z,1.46
2022-12-09T03:55:01.811Z,1.44
2022-12-09T03:57:29.801Z,1.43
2022-12-09T04:00:00.685Z,1.43
2022-12-09T04:02:28.348Z,1.40
2022-12-09T04:04:55.444Z,1.38
2022-12-09T04:07:22.314Z,1.35
2022-12-09T04:09:49.266Z,1.33
2022-12-09T04:12:16.333Z,1.32
2022-12-09T04:14:43.267Z,1.30
2022-12-09T04:17:11.998Z,1.29
2022-12-09T04:19:38.890Z,1.30
2022-12-09T04:22:06.098Z,1.28
2022-12-09T04:24:33.157Z,1.26
2022-12-09T04:27:00.120Z,1.28
2022-12-09T04:29:27.079Z,1.27
2022-12-09T04:31:53.959Z,1.30
2022-12-09T04:34:20.842Z,1.33
2022-12-09T04:36:49.353Z,1.38
2022-12-09T04:39:16.439Z,1.41
2022-12-09T04:41:43.658Z,1.42
2022-12-09T04:44:10.756Z,1.44
2022-12-09T04:46:37.646Z,1.44
2022-12-09T04:49:04.803Z,1.42
2022-12-09T04:51:39.063Z,1.42
2022-12-09T04:54:07.508Z,1.40
2022-12-09T04:56:34.283Z,1.38
2022-12-09T04:59:01.173Z,1.37
2022-12-09T05:01:31.166Z,1.35
2022-12-09T05:03:59.532Z,1.35
2022-12-09T05:06:27.000Z,1.34
2022-12-09T05:08:55.073Z,1.34
2022-12-09T05:11:24.099Z,1.33
2022-12-09T05:13:53.333Z,1.33
2022-12-09T05:16:20.706Z,1.32
2022-12-09T05:18:49.105Z,1.33
2022-12-09T05:21:19.462Z,1.31
2022-12-09T05:23:46.713Z,1.29
2022-12-09T05:26:19.333Z,1.28
2022-12-09T05:28:46.904Z,1.26
2022-12-09T05:31:21.034Z,1.25
2022-12-09T05:33:50.428Z,1.22
2022-12-09T05:36:24.354Z,1.21
2022-12-09T05:38:52.009Z,1.17
2022-12-09T05:41:20.437Z,1.16
2022-12-09T05:43:47.783Z,1.14
2022-12-09T05:46:15.783Z,1.13
2022-12-09T05:48:43.326Z,1.11
2022-12-09T05:51:31.252Z,1.08
2022-12-09T05:54:04.612Z,1.07
2022-12-09T05:56:33.339Z,1.05
2022-12-09T05:59:00.363Z,1.05
2022-12-09T06:01:27.846Z,1.04
2022-12-09T06:03:55.704Z,1.02
2022-12-09T06:06:26.827Z,1.00
2022-12-09T06:09:02.660Z,1.00
2022-12-09T06:11:30.197Z,0.95
2022-12-09T06:13:57.675Z,0.96
2022-12-09T06:16:25.187Z,0.93
2022-12-09T06:18:52.628Z,0.93
2022-12-09T06:21:21.200Z,0.90
2022-12-09T06:23:50.174Z,0.89
2022-12-09T06:26:21.680Z,0.88
2022-12-09T06:28:48.974Z,0.87
2022-12-09T06:31:16.487Z,0.85
2022-12-09T06:34:00.246Z,0.83
2022-12-09T06:36:30.161Z,0.77
2022-12-09T06:39:05.871Z,0.73
2022-12-09T06:41:43.282Z,0.73
2022-12-09T06:44:14.775Z,0.72
2022-12-09T06:46:47.127Z,0.74
2022-12-09T06:49:14.411Z,0.80
2022-12-09T06:51:41.627Z,0.86
2022-12-09T06:54:09.738Z,0.93
2022-12-09T06:56:36.742Z,1.00
2022-12-09T06:59:07.843Z,1.09
2022-12-09T07:01:35.866Z,1.17
2022-12-09T07:04:05.301Z,1.27
2022-12-09T07:06:43.392Z,1.36
2022-12-09T07:09:20.893Z,1.43
2022-12-09T07:11:48.926Z,1.46
2022-12-09T07:14:18.345Z,1.52
2022-12-09T07:16:45.577Z,1.54
2022-12-09T07:19:22.392Z,1.59
2022-12-09T07:21:50.896Z,1.60
2022-12-09T07:24:19.750Z,1.65
2022-12-09T07:26:47.737Z,1.68
2022-12-09T07:29:14.755Z,1.70
2022-12-09T07:31:42.348Z,1.69
2022-12-09T07:34:11.806Z,1.70
2022-12-09T07:36:38.837Z,1.68
2022-12-09T07:39:14.024Z,1.68
2022-12-09T07:41:42.092Z,1.66
2022-12-09T07:44:11.145Z,1.63
2022-12-09T07:46:39.662Z,1.62
2022-12-09T07:49:06.669Z,1.61
2022-12-09T07:51:34.762Z,1.60
2022-12-09T07:54:01.824Z,1.59
2022-12-09T07:56:29.371Z,1.59
2022-12-09T07:58:57.412Z,1.62
2022-12-09T08:01:30.208Z,1.64
2022-12-09T08:03:57.979Z,1.62
2022-12-09T08:06:28.444Z,1.64
2022-12-09T08:08:59.889Z,1.68
2022-12-09T08:11:30.906Z,1.69
2022-12-09T08:14:04.367Z,1.72
2022-12-09T08:16:34.669Z,1.76
2022-12-09T08:19:02.182Z,1.79
2022-12-09T08:21:32.778Z,1.84
2022-12-09T08:24:03.304Z,1.88
2022-12-09T08:26:32.348Z,1.93
2022-12-09T08:28:59.924Z,1.96
2022-12-09T08:31:28.521Z,1.98
2022-12-09T08:33:56.008Z,2.05
2022-12-09T08:36:26.835Z,2.10
2022-12-09T08:38:55.357Z,2.14
2022-12-09T08:41:35.855Z,2.20
2022-12-09T08:44:13.820Z,2.25
2022-12-09T08:46:44.709Z,2.32
2022-12-09T08:49:13.555Z,2.40
2022-12-09T08:51:40.716Z,2.45
2022-12-09T08:54:07.779Z,2.49
2022-12-09T08:56:35.396Z,2.55
2022-12-09T08:59:03.035Z,2.61
2022-12-09T09:01:35.836Z,2.66
2022-12-09T09:04:10.750Z,2.70
2022-12-09T09:06:40.609Z,2.77
2022-12-09T09:09:09.468Z,2.81
2022-12-09T09:11:37.749Z,2.85
2022-12-09T09:14:09.358Z,2.89
2022-12-09T09:16:40.088Z,2.95
2022-12-09T09:19:08.118Z,2.98
2022-12-09T09:21:35.804Z,3.03
2022-12-09T09:24:03.187Z,3.07
2022-12-09T09:26:30.254Z,3.13
2022-12-09T09:28:57.418Z,3.17
2022-12-09T09:31:25.994Z,3.23
2022-12-09T09:33:53.959Z,3.26
2022-12-09T09:36:24.882Z,3.32
2022-12-09T09:38:55.050Z,3.35
2022-12-09T09:41:37.171Z,3.39
2022-12-09T09:44:16.739Z,3.44
2022-12-09T09:46:47.991Z,3.48
2022-12-09T09:49:36.451Z,3.55
2022-12-09T09:52:13.325Z,3.59
2022-12-09T09:54:40.210Z,3.64
2022-12-09T09:57:22.144Z,3.67
2022-12-09T10:00:09.296Z,3.69
2022-12-09T10:02:49.128Z,3.73
2022-12-09T10:05:32.098Z,3.79
2022-12-09T10:08:36.125Z,3.80
2022-12-09T10:11:23.850Z,3.86
2022-12-09T10:14:36.193Z,3.86
2022-12-09T10:17:21.381Z,3.91
2022-12-09T10:19:54.471Z,3.95
2022-12-09T10:22:25.656Z,4.00
2022-12-09T10:24:58.209Z,4.05
2022-12-09T10:27:42.007Z,4.11
2022-12-09T10:30:19.725Z,4.18
2022-12-09T10:32:47.008Z,4.21
2022-12-09T10:35:21.666Z,4.28
2022-12-09T10:37:52.708Z,4.31
2022-12-09T10:40:25.566Z,4.38
2022-12-09T10:43:17.651Z,4.44
2022-12-09T10:46:17.209Z,4.49
2022-12-09T10:48:55.930Z,4.51
2022-12-09T10:51:30.158Z,4.58
2022-12-09T10:54:00.028Z,4.59
2022-12-09T10:56:36.884Z,4.61
2022-12-09T10:59:27.962Z,4.67
2022-12-09T11:02:18.262Z,4.70
2022-12-09T11:04:47.048Z,4.74
2022-12-09T11:07:22.758Z,4.79
2022-12-09T11:09:58.999Z,4.82
2022-12-09T11:12:33.452Z,4.84
2022-12-09T11:15:28.675Z,4.85
2022-12-09T11:18:32.127Z,4.83
2022-12-09T11:21:06.921Z,4.83
2022-12-09T11:23:35.709Z,4.86
2022-12-09T11:26:06.881Z,4.86
2022-12-09T11:28:40.262Z,4.90
2022-12-09T11:31:29.318Z,4.92
2022-12-09T11:34:06.415Z,4.92
2022-12-09T11:36:40.364Z,4.92
2022-12-09T11:39:28.544Z,4.96
2022-12-09T11:42:22.854Z,4.97
2022-12-09T11:45:06.184Z,4.96
2022-12-09T11:48:25.686Z,4.98
2022-12-09T11:50:33.384Z,4.99
2022-12-09T11:53:32.746Z,5.01
2022-12-09T11:56:20.311Z,5.03
2022-12-09T11:59:17.860Z,5.04
2022-12-09T12:02:12.906Z,5.05
2022-12-09T12:04:56.144Z,5.06
2022-12-09T12:07:35.059Z,5.09
2022-12-09T12:10:03.347Z,5.12
2022-12-09T12:12:45.116Z,5.15
2022-12-09T12:15:38.346Z,5.19
2022-12-09T12:18:15.136Z,5.20
2022-12-09T12:21:10.196Z,5.21
2022-12-09T12:23:55.410Z,5.20
2022-12-09T12:26:58.777Z,5.20
2022-12-09T12:29:38.038Z,5.18
2022-12-09T12:32:30.481Z,5.19
2022-12-09T12:35:22.085Z,5.18
2022-12-09T12:38:43.723Z,5.20
2022-12-09T12:41:10.375Z,5.17
2022-12-09T12:44:37.860Z,5.19
2022-12-09T12:47:57.569Z,5.19
2022-12-09T12:50:38.754Z,5.22
2022-12-09T12:53:31.841Z,5.23
2022-12-09T12:56:14.731Z,5.27
2022-12-09T12:59:06.381Z,5.29
2022-12-09T13:01:57.684Z,5.31
2022-12-09T13:04:40.181Z,5.33
2022-12-09T13:07:17.964Z,5.34
2022-12-09T13:09:56.561Z,5.37
2022-12-09T13:12:48.925Z,5.38
2022-12-09T13:15:18.479Z,5.37
2022-12-09T13:17:47.220Z,5.38
2022-12-09T13:20:28.122Z,5.41
2022-12-09T13:23:37.725Z,5.39
2022-12-09T13:27:17.512Z,5.37
2022-12-09T13:29:54.215Z,5.37
2022-12-09T13:33:04.792Z,5.36
2022-12-09T13:35:57.064Z,5.32
2022-12-09T13:38:39.634Z,5.27
2022-12-09T13:41:31.175Z,5.19
2022-12-09T13:44:17.611Z,5.14
2022-12-09T13:46:44.687Z,5.08
2022-12-09T13:49:19.065Z,5.04
2022-12-09T13:51:51.449Z,5.01
2022-12-09T13:54:22.459Z,4.96
2022-12-09T13:57:19.672Z,4.93
2022-12-09T13:59:55.599Z,4.87
2022-12-09T14:02:29.787Z,4.83
2022-12-09T14:05:09.925Z,4.82
2022-12-09T14:07:48.712Z,4.80
2022-12-09T14:10:37.755Z,4.74
2022-12-09T14:13:27.149Z,4.70
2022-12-09T14:16:16.795Z,4.68
2022-12-09T14:18:44.435Z,4.65
2022-12-09T14:21:28.772Z,4.63
2022-12-09T14:24:07.412Z,4.55
2022-12-09T14:26:46.751Z,4.53
2022-12-09T14:29:42.339Z,4.51
2022-12-09T14:32:33.777Z,4.54
2022-12-09T14:35:39.740Z,4.55
2022-12-09T14:38:20.717Z,4.58
2022-12-09T14:41:06.020Z,4.60
2022-12-09T14:44:01.768Z,4.62
2022-12-09T14:46:33.672Z,4.64
2022-12-09T14:49:20.379Z,4.67
2022-12-09T14:51:52.087Z,4.66
2022-12-09T14:54:36.817Z,4.66
2022-12-09T14:57:14.224Z,4.65
2022-12-09T14:59:50.763Z,4.65
2022-12-09T15:02:24.155Z,4.66
2022-12-09T15:04:55.172Z,4.68
2022-12-09T15:07:33.921Z,4.68
2022-12-09T15:10:13.713Z,4.69
2022-12-09T15:12:48.258Z,4.70
2022-12-09T15:15:33.800Z,4.69
2022-12-09T15:18:05.727Z,4.68
2022-12-09T15:20:39.136Z,4.67
2022-12-09T15:23:26.316Z,4.69
2022-12-09T15:25:56.396Z,4.69
2022-12-09T15:28:27.039Z,4.70
2022-12-09T15:31:19.550Z,4.71
2022-12-09T15:33:54.875Z,4.70
2022-12-09T15:36:33.161Z,4.70
2022-12-09T15:39:08.454Z,4.70
2022-12-09T15:42:04.957Z,4.70
2022-12-09T15:44:49.684Z,4.71
2022-12-09T15:47:48.902Z,4.69
2022-12-09T15:50:33.497Z,4.70
2022-12-09T15:53:42.004Z,4.70
2022-12-09T15:56:18.561Z,4.73
2022-12-09T15:58:51.659Z,4.73
2022-12-09T16:01:30.971Z,4.73
2022-12-09T16:04:00.157Z,4.72
2022-12-09T16:06:33.905Z,4.74
2022-12-09T16:09:02.056Z,4.75
2022-12-09T16:11:55.484Z,4.75
2022-12-09T16:14:24.010Z,4.77
2022-12-09T16:17:03.260Z,4.77
2022-12-09T16:19:36.652Z,4.77
2022-12-09T16:22:14.732Z,4.79
2022-12-09T16:27:37.333Z,4.84
2022-12-09T16:30:20.502Z,4.90
2022-12-09T16:33:02.123Z,4.92
2022-12-09T16:35:36.019Z,4.92
2022-12-09T16:38:11.452Z,4.91
2022-12-09T16:40:44.119Z,4.91
2022-12-09T16:43:19.222Z,4.89
2022-12-09T16:45:51.662Z,4.91
2022-12-09T16:48:20.772Z,4.86
2022-12-09T16:51:06.449Z,4.83
2022-12-09T16:53:45.442Z,4.78
2022-12-09T16:56:31.591Z,4.72
2022-12-09T16:59:01.644Z,4.67
2022-12-09T17:01:34.639Z,4.64
2022-12-09T17:04:05.201Z,4.58
2022-12-09T17:06:32.546Z,4.54
2022-12-09T17:08:59.346Z,4.47
2022-12-09T17:11:26.180Z,4.42
2022-12-09T17:13:53.501Z,4.38
2022-12-09T17:16:23.983Z,4.32
2022-12-09T17:18:51.348Z,4.29
2022-12-09T17:21:18.761Z,4.24
2022-12-09T17:23:45.821Z,4.18
2022-12-09T17:26:15.661Z,4.14
2022-12-09T17:28:43.809Z,4.12
2022-12-09T17:31:17.583Z,4.06
2022-12-09T17:33:45.017Z,4.00
2022-12-09T17:36:14.030Z,3.99
2022-12-09T17:38:41.479Z,3.96
2022-12-09T17:41:13.298Z,3.94
2022-12-09T17:43:40.079Z,3.91
2022-12-09T17:46:07.667Z,3.88
2022-12-09T17:48:35.184Z,3.87
2022-12-09T17:51:11.392Z,3.83
2022-12-09T17:53:40.926Z,3.78
2022-12-09T17:56:15.646Z,3.75
2022-12-09T17:58:43.424Z,3.72
2022-12-09T18:01:22.474Z,3.69
2022-12-09T18:04:00.390Z,3.67
2022-12-09T18:06:33.922Z,3.63
2022-12-09T18:09:02.132Z,3.60
2022-12-09T18:11:28.912Z,3.57
2022-12-09T18:13:55.873Z,3.56
2022-12-09T18:16:22.732Z,3.54
2022-12-09T18:18:49.855Z,3.55
2022-12-09T18:21:19.527Z,3.55
2022-12-09T18:23:46.599Z,3.54
2022-12-09T18:26:15.994Z,3.54
2022-12-09T18:28:43.438Z,3.54
2022-12-09T18:31:14.154Z,3.54
2022-12-09T18:33:42.053Z,3.53
2022-12-09T18:36:13.375Z,3.51
2022-12-09T18:38:40.969Z,3.49
2022-12-09T18:41:17.618Z,3.48
2022-12-09T18:43:46.886Z,3.46
2022-12-09T18:46:26.407Z,3.47
2022-12-09T18:49:07.098Z,3.44
2022-12-09T18:51:34.558Z,3.40
2022-12-09T18:54:03.155Z,3.36
2022-12-09T18:56:30.256Z,3.33
2022-12-09T18:59:06.558Z,3.29
2022-12-09T19:01:38.916Z,3.25
2022-12-09T19:04:08.619Z,3.21
2022-12-09T19:06:39.148Z,3.17
2022-12-09T19:09:21.915Z,3.14
2022-12-09T19:11:50.882Z,3.12
2022-12-09T19:14:20.231Z,3.11
2022-12-09T19:16:47.989Z,3.12
2022-12-09T19:19:23.564Z,3.14
2022-12-09T19:21:52.774Z,3.18
2022-12-09T19:24:29.740Z,3.21
2022-12-09T19:26:57.790Z,3.24
2022-12-09T19:29:25.704Z,3.28
2022-12-09T19:31:54.102Z,3.33
2022-12-09T19:34:29.545Z,3.36
2022-12-09T19:37:00.116Z,3.39
2022-12-09T19:39:31.101Z,3.41
2022-12-09T19:41:59.257Z,3.44
2022-12-09T19:47:14.244Z,3.53
2022-12-09T19:49:42.522Z,3.57
2022-12-09T19:52:10.577Z,3.62
2022-12-09T19:54:37.660Z,3.66
2022-12-09T19:57:04.523Z,3.71
2022-12-09T19:59:31.271Z,3.73
2022-12-09T20:01:58.062Z,3.78
2022-12-09T20:04:48.322Z,3.79
2022-12-09T20:07:13.196Z,3.81
2022-12-09T20:09:40.027Z,3.83
2022-12-09T20:12:06.872Z,3.87
2022-12-09T20:14:33.802Z,3.89
2022-12-09T20:17:00.560Z,3.90
2022-12-09T20:19:27.758Z,3.92
2022-12-09T20:21:54.532Z,3.95
2022-12-09T20:24:21.358Z,3.95
2022-12-09T20:26:48.112Z,3.98
2022-12-09T20:29:14.862Z,3.98
2022-12-09T20:31:42.813Z,3.99
2022-12-09T20:34:16.218Z,3.97
2022-12-09T20:36:45.271Z,3.95
2022-12-09T20:39:19.531Z,3.93
2022-12-09T20:41:46.758Z,3.90
2022-12-09T20:44:15.740Z,3.89
2022-12-09T20:46:51.259Z,3.88
2022-12-09T20:49:21.854Z,3.87
2022-12-09T20:51:49.089Z,3.86
2022-12-09T20:54:16.233Z,3.86
2022-12-09T20:56:43.150Z,3.87
2022-12-09T20:59:13.434Z,3.86
2022-12-09T21:01:40.917Z,3.86
2022-12-09T21:04:08.555Z,3.88
2022-12-09T21:06:38.627Z,3.87
2022-12-09T21:09:10.265Z,3.86
2022-12-09T21:11:37.565Z,3.87
2022-12-09T21:14:06.678Z,3.89
2022-12-09T21:16:38.922Z,3.91
2022-12-09T21:19:10.263Z,3.92
2022-12-09T21:21:40.398Z,3.97
2022-12-09T21:24:08.678Z,3.99
2022-12-09T21:26:35.457Z,4.01
2022-12-09T21:29:02.297Z,4.05
2022-12-09T21:31:32.994Z,4.07
2022-12-09T21:34:03.420Z,4.08
2022-12-09T21:36:34.044Z,4.09
2022-12-09T21:39:01.346Z,4.09
2022-12-09T21:41:31.805Z,4.12
2022-12-09T21:43:58.695Z,4.13
2022-12-09T21:46:29.599Z,4.15
2022-12-09T21:49:03.297Z,4.15
2022-12-09T21:51:32.245Z,4.15
2022-12-09T21:53:59.371Z,4.15
2022-12-09T21:56:30.236Z,4.17
2022-12-09T21:58:59.156Z,4.16
2022-12-09T22:01:36.115Z,4.20
2022-12-09T22:04:05.789Z,4.18
2022-12-09T22:06:32.957Z,4.18
2022-12-09T22:09:00.927Z,4.19
2022-12-09T22:11:32.241Z,4.20
2022-12-09T22:14:01.250Z,4.19
2022-12-09T22:16:32.483Z,4.18
2022-12-09T22:19:01.423Z,4.16
2022-12-09T22:21:30.687Z,4.18
2022-12-09T22:24:05.029Z,4.17
2022-12-09T22:26:32.033Z,4.16
2022-12-09T22:29:01.038Z,4.16
2022-12-09T22:31:32.655Z,4.16
2022-12-09T22:34:05.165Z,4.17
2022-12-09T22:36:32.953Z,4.16
2022-12-09T22:38:59.716Z,4.17
2022-12-09T22:41:29.639Z,4.17
2022-12-09T22:43:56.974Z,4.18
2022-12-09T22:46:30.975Z,4.18
2022-12-09T22:49:00.897Z,4.14
2022-12-09T22:51:31.190Z,4.13
2022-12-09T22:53:59.124Z,4.13
2022-12-09T22:56:26.225Z,4.14
2022-12-09T22:58:53.342Z,4.14
2022-12-09T23:01:25.670Z,4.15
2022-12-09T23:03:54.731Z,4.14
2022-12-09T23:06:21.928Z,4.15
2022-12-09T23:08:49.039Z,4.13
2022-12-09T23:11:25.433Z,4.15
2022-12-09T23:13:52.931Z,4.12
2022-12-09T23:16:23.064Z,4.12
2022-12-09T23:18:51.263Z,4.14
2022-12-09T23:21:37.676Z,4.13
2022-12-09T23:24:09.635Z,4.14
2022-12-09T23:26:39.235Z,4.14
2022-12-09T23:29:12.645Z,4.13
2022-12-09T23:31:39.908Z,4.13
2022-12-09T23:34:08.520Z,4.14
2022-12-09T23:36:39.117Z,4.14
2022-12-09T23:39:10.929Z,4.14
2022-12-09T23:41:40.379Z,4.15
2022-12-09T23:44:12.862Z,4.15
2022-12-09T23:46:40.191Z,4.15
2022-12-09T23:49:07.653Z,4.15
2022-12-09T23:51:36.525Z,4.16
2022-12-09T23:54:06.316Z,4.16
2022-12-09T23:56:39.847Z,4.17
2022-12-09T23:59:10.867Z,4.19
